Montgomery, Louisiana
Current Conditions -  °F | °C
As of 11:55 PM on Tuesday 21 Oct 2014 (Local Time) from KIER Reporting Station
Haze Haze  
Wind Chill: 60°   Ceiling: Unl
Heat Index: 60°   Visibility: 2.5mi
Dew Point: 60°   Wind: 0mph
Humidity: 99%   Direction: NA
Pressure: 30.06"   Gusts: NA
Location:  31.67°N, 92.89°W
Report Text: KIER 220455Z AUTO 00000KT 2 1/2SM BR CLR 16/16 A3006 RMK AO2 VIS 1 1/2V4 T01580157
Loading
Personal Weather Stations






























Interactive Weather Map
Tropical Storm Tracking
New forecast layout! Learn more

10-Day Weather Forecast

Advertisements
Track Severe Weather on mobile